sensor_id;sensor_type;location;lat;lon;timestamp;pressure;altitude;pressure_sealevel;temperature;humidity
11523;BME280;40093;43.224;27.910;2023-01-26T00:00:02;101402.50;;;3.08;100.00
11523;BME280;40093;43.224;27.910;2023-01-26T00:02:31;101412.47;;;3.12;100.00
11523;BME280;40093;43.224;27.910;2023-01-26T00:05:00;101396.84;;;3.18;100.00
11523;BME280;40093;43.224;27.910;2023-01-26T00:07:27;101381.03;;;3.06;100.00
11523;BME280;40093;43.224;27.910;2023-01-26T00:09:54;101386.38;;;3.11;100.00
11523;BME280;40093;43.224;27.910;2023-01-26T00:12:21;101393.00;;;3.19;100.00
11523;BME280;40093;43.224;27.910;2023-01-26T00:14:48;101404.09;;;3.22;100.00
11523;BME280;40093;43.224;27.910;2023-01-26T00:17:16;101406.66;;;3.41;100.00
11523;BME280;40093;43.224;27.910;2023-01-26T00:19:56;101399.13;;;3.38;100.00
11523;BME280;40093;43.224;27.910;2023-01-26T00:22:24;101387.41;;;3.37;100.00
11523;BME280;40093;43.224;27.910;2023-01-26T00:24:51;101398.97;;;3.43;100.00
11523;BME280;40093;43.224;27.910;2023-01-26T00:27:18;101389.41;;;3.45;100.00
11523;BME280;40093;43.224;27.910;2023-01-26T00:29:45;101382.41;;;3.31;100.00
11523;BME280;40093;43.224;27.910;2023-01-26T00:32:12;101380.41;;;3.23;100.00
11523;BME280;40093;43.224;27.910;2023-01-26T00:34:39;101363.25;;;3.36;100.00
11523;BME280;40093;43.224;27.910;2023-01-26T00:37:07;101379.56;;;3.36;100.00
11523;BME280;40093;43.224;27.910;2023-01-26T00:39:39;101360.16;;;3.15;100.00
11523;BME280;40093;43.224;27.910;2023-01-26T00:42:06;101361.78;;;3.03;100.00
11523;BME280;40093;43.224;27.910;2023-01-26T00:44:37;101348.31;;;2.98;100.00
11523;BME280;40093;43.224;27.910;2023-01-26T00:47:05;101351.53;;;3.00;100.00
11523;BME280;40093;43.224;27.910;2023-01-26T00:49:32;101337.84;;;3.05;100.00
11523;BME280;40093;43.224;27.910;2023-01-26T00:51:59;101345.78;;;3.15;100.00
11523;BME280;40093;43.224;27.910;2023-01-26T00:54:28;101347.25;;;3.21;100.00
11523;BME280;40093;43.224;27.910;2023-01-26T00:56:54;101351.69;;;3.30;100.00
11523;BME280;40093;43.224;27.910;2023-01-26T00:59:21;101356.69;;;3.37;100.00
11523;BME280;40093;43.224;27.910;2023-01-26T01:01:49;101350.00;;;3.43;100.00
11523;BME280;40093;43.224;27.910;2023-01-26T01:04:15;101339.03;;;3.48;100.00
11523;BME280;40093;43.224;27.910;2023-01-26T01:06:42;101347.53;;;3.55;100.00
11523;BME280;40093;43.224;27.910;2023-01-26T01:09:10;101324.78;;;3.51;100.00
11523;BME280;40093;43.224;27.910;2023-01-26T01:11:38;101329.56;;;3.45;100.00
11523;BME280;40093;43.224;27.910;2023-01-26T01:14:05;101328.50;;;3.55;100.00
11523;BME280;40093;43.224;27.910;2023-01-26T01:16:32;101320.31;;;3.55;100.00
11523;BME280;40093;43.224;27.910;2023-01-26T01:18:59;101329.81;;;3.57;100.00
11523;BME280;40093;43.224;27.910;2023-01-26T01:21:26;101335.88;;;3.54;100.00
11523;BME280;40093;43.224;27.910;2023-01-26T01:23:53;101342.78;;;3.60;100.00
11523;BME280;40093;43.224;27.910;2023-01-26T01:26:19;101347.28;;;3.65;100.00
11523;BME280;40093;43.224;27.910;2023-01-26T01:28:48;101335.81;;;3.68;100.00
11523;BME280;40093;43.224;27.910;2023-01-26T01:31:15;101339.28;;;3.60;100.00
11523;BME280;40093;43.224;27.910;2023-01-26T01:33:42;101337.28;;;3.52;100.00
11523;BME280;40093;43.224;27.910;2023-01-26T01:36:11;101337.03;;;3.62;100.00
11523;BME280;40093;43.224;27.910;2023-01-26T01:38:39;101331.69;;;3.35;100.00
11523;BME280;40093;43.224;27.910;2023-01-26T01:41:06;101344.31;;;3.53;100.00
11523;BME280;40093;43.224;27.910;2023-01-26T01:43:33;101331.72;;;3.57;100.00
11523;BME280;40093;43.224;27.910;2023-01-26T01:46:03;101329.94;;;3.52;100.00
11523;BME280;40093;43.224;27.910;2023-01-26T01:48:37;101328.38;;;3.60;100.00
11523;BME280;40093;43.224;27.910;2023-01-26T01:51:14;101328.63;;;3.72;100.00
11523;BME280;40093;43.224;27.910;2023-01-26T01:53:44;101331.53;;;3.75;100.00
11523;BME280;40093;43.224;27.910;2023-01-26T01:56:17;101326.63;;;3.64;100.00
11523;BME280;40093;43.224;27.910;2023-01-26T01:58:48;101318.03;;;3.48;100.00
11523;BME280;40093;43.224;27.910;2023-01-26T02:01:17;101317.13;;;3.53;100.00
11523;BME280;40093;43.224;27.910;2023-01-26T02:03:46;101330.44;;;3.54;100.00
11523;BME280;40093;43.224;27.910;2023-01-26T02:06:20;101320.72;;;3.62;100.00
11523;BME280;40093;43.224;27.910;2023-01-26T02:08:50;101321.75;;;3.74;100.00
11523;BME280;40093;43.224;27.910;2023-01-26T02:11:20;101327.63;;;3.90;100.00
11523;BME280;40093;43.224;27.910;2023-01-26T02:13:49;101314.06;;;3.98;100.00
11523;BME280;40093;43.224;27.910;2023-01-26T02:16:18;101307.78;;;3.98;100.00
11523;BME280;40093;43.224;27.910;2023-01-26T02:18:45;101306.31;;;3.92;100.00
11523;BME280;40093;43.224;27.910;2023-01-26T02:21:15;101296.41;;;3.96;100.00
11523;BME280;40093;43.224;27.910;2023-01-26T02:23:50;101297.03;;;3.93;100.00
11523;BME280;40093;43.224;27.910;2023-01-26T02:26:24;101283.28;;;3.98;100.00
11523;BME280;40093;43.224;27.910;2023-01-26T02:28:53;101285.66;;;3.91;100.00
11523;BME280;40093;43.224;27.910;2023-01-26T02:31:22;101277.16;;;3.92;100.00
11523;BME280;40093;43.224;27.910;2023-01-26T02:33:49;101260.31;;;3.82;100.00
11523;BME280;40093;43.224;27.910;2023-01-26T02:36:19;101252.81;;;3.57;100.00
11523;BME280;40093;43.224;27.910;2023-01-26T02:38:52;101261.53;;;3.45;100.00
11523;BME280;40093;43.224;27.910;2023-01-26T02:41:22;101263.69;;;3.57;100.00
11523;BME280;40093;43.224;27.910;2023-01-26T02:44:09;101265.34;;;3.66;100.00
11523;BME280;40093;43.224;27.910;2023-01-26T02:46:36;101265.03;;;3.68;100.00
11523;BME280;40093;43.224;27.910;2023-01-26T02:49:03;101267.31;;;3.74;100.00
11523;BME280;40093;43.224;27.910;2023-01-26T02:51:47;101263.16;;;3.77;100.00
11523;BME280;40093;43.224;27.910;2023-01-26T02:54:14;101269.53;;;3.72;100.00
11523;BME280;40093;43.224;27.910;2023-01-26T02:56:56;101269.84;;;3.71;100.00
11523;BME280;40093;43.224;27.910;2023-01-26T02:59:23;101268.00;;;3.80;100.00
11523;BME280;40093;43.224;27.910;2023-01-26T03:01:50;101267.25;;;3.66;100.00
11523;BME280;40093;43.224;27.910;2023-01-26T03:04:18;101264.44;;;3.79;100.00
11523;BME280;40093;43.224;27.910;2023-01-26T03:06:45;101260.78;;;3.84;100.00
11523;BME280;40093;43.224;27.910;2023-01-26T03:09:12;101266.13;;;3.89;100.00
11523;BME280;40093;43.224;27.910;2023-01-26T03:11:39;101268.69;;;3.94;100.00
11523;BME280;40093;43.224;27.910;2023-01-26T03:14:09;101262.31;;;3.98;100.00
11523;BME280;40093;43.224;27.910;2023-01-26T03:16:36;101253.69;;;4.05;100.00
11523;BME280;40093;43.224;27.910;2023-01-26T03:19:05;101266.38;;;4.18;100.00
11523;BME280;40093;43.224;27.910;2023-01-26T03:21:50;101266.09;;;4.19;100.00
11523;BME280;40093;43.224;27.910;2023-01-26T03:24:34;101268.50;;;4.21;100.00
11523;BME280;40093;43.224;27.910;2023-01-26T03:27:18;101263.06;;;4.21;100.00
11523;BME280;40093;43.224;27.910;2023-01-26T03:29:55;101257.06;;;4.10;100.00
11523;BME280;40093;43.224;27.910;2023-01-26T03:32:23;101258.84;;;4.15;100.00
11523;BME280;40093;43.224;27.910;2023-01-26T03:34:51;101265.00;;;4.29;100.00
11523;BME280;40093;43.224;27.910;2023-01-26T03:37:18;101225.69;;;4.13;100.00
11523;BME280;40093;43.224;27.910;2023-01-26T03:39:48;101256.41;;;4.44;100.00
11523;BME280;40093;43.224;27.910;2023-01-26T03:42:33;101260.91;;;4.57;100.00
11523;BME280;40093;43.224;27.910;2023-01-26T03:45:19;101257.53;;;4.60;100.00
11523;BME280;40093;43.224;27.910;2023-01-26T03:48:05;101267.03;;;4.71;100.00
11523;BME280;40093;43.224;27.910;2023-01-26T03:50:49;101268.78;;;4.67;100.00
11523;BME280;40093;43.224;27.910;2023-01-26T03:53:34;101276.59;;;4.43;100.00
11523;BME280;40093;43.224;27.910;2023-01-26T03:56:18;101275.47;;;4.52;100.00
11523;BME280;40093;43.224;27.910;2023-01-26T03:58:48;101274.06;;;4.55;100.00
11523;BME280;40093;43.224;27.910;2023-01-26T04:01:17;101265.69;;;4.43;100.00
11523;BME280;40093;43.224;27.910;2023-01-26T04:03:52;101271.81;;;4.57;100.00
11523;BME280;40093;43.224;27.910;2023-01-26T04:06:39;101264.94;;;4.59;100.00
11523;BME280;40093;43.224;27.910;2023-01-26T04:09:23;101260.25;;;4.60;100.00
11523;BME280;40093;43.224;27.910;2023-01-26T04:11:50;101240.72;;;4.58;100.00
11523;BME280;40093;43.224;27.910;2023-01-26T04:14:17;101254.38;;;4.75;100.00
11523;BME280;40093;43.224;27.910;2023-01-26T04:17:03;101255.97;;;4.84;100.00
11523;BME280;40093;43.224;27.910;2023-01-26T04:19:47;101255.97;;;4.92;100.00
11523;BME280;40093;43.224;27.910;2023-01-26T04:22:34;101243.16;;;4.93;100.00
11523;BME280;40093;43.224;27.910;2023-01-26T04:25:09;101252.63;;;4.95;100.00
11523;BME280;40093;43.224;27.910;2023-01-26T04:27:36;101249.72;;;5.00;100.00
11523;BME280;40093;43.224;27.910;2023-01-26T04:30:04;101253.09;;;5.06;100.00
11523;BME280;40093;43.224;27.910;2023-01-26T04:32:32;101252.28;;;5.05;100.00
11523;BME280;40093;43.224;27.910;2023-01-26T04:34:59;101247.81;;;5.09;100.00
11523;BME280;40093;43.224;27.910;2023-01-26T04:37:26;101246.69;;;5.02;100.00
11523;BME280;40093;43.224;27.910;2023-01-26T04:39:53;101238.34;;;5.07;100.00
11523;BME280;40093;43.224;27.910;2023-01-26T04:42:20;101241.69;;;5.12;100.00
11523;BME280;40093;43.224;27.910;2023-01-26T04:44:50;101243.94;;;5.19;100.00
11523;BME280;40093;43.224;27.910;2023-01-26T04:47:21;101251.34;;;5.18;100.00
11523;BME280;40093;43.224;27.910;2023-01-26T04:49:49;101252.94;;;5.19;100.00
11523;BME280;40093;43.224;27.910;2023-01-26T04:52:16;101247.50;;;5.19;100.00
11523;BME280;40093;43.224;27.910;2023-01-26T04:54:43;101244.44;;;5.12;100.00
11523;BME280;40093;43.224;27.910;2023-01-26T04:57:10;101246.69;;;5.10;100.00
11523;BME280;40093;43.224;27.910;2023-01-26T04:59:37;101246.81;;;5.05;100.00
11523;BME280;40093;43.224;27.910;2023-01-26T05:02:04;101252.16;;;5.02;100.00
11523;BME280;40093;43.224;27.910;2023-01-26T05:04:30;101249.72;;;5.00;100.00
11523;BME280;40093;43.224;27.910;2023-01-26T05:06:59;101237.88;;;4.96;100.00
11523;BME280;40093;43.224;27.910;2023-01-26T05:09:26;101235.28;;;5.00;100.00
11523;BME280;40093;43.224;27.910;2023-01-26T05:11:52;101235.63;;;4.98;100.00
11523;BME280;40093;43.224;27.910;2023-01-26T05:14:39;101236.28;;;4.95;100.00
11523;BME280;40093;43.224;27.910;2023-01-26T05:17:06;101231.59;;;4.87;100.00
11523;BME280;40093;43.224;27.910;2023-01-26T05:19:33;101233.03;;;4.85;100.00
11523;BME280;40093;43.224;27.910;2023-01-26T05:22:01;101231.25;;;4.89;100.00
11523;BME280;40093;43.224;27.910;2023-01-26T05:24:28;101234.63;;;4.86;100.00
11523;BME280;40093;43.224;27.910;2023-01-26T05:26:55;101240.25;;;4.89;100.00
11523;BME280;40093;43.224;27.910;2023-01-26T05:29:42;101235.75;;;4.85;100.00
11523;BME280;40093;43.224;27.910;2023-01-26T05:32:09;101241.84;;;4.73;100.00
11523;BME280;40093;43.224;27.910;2023-01-26T05:34:35;101243.47;;;4.75;100.00
11523;BME280;40093;43.224;27.910;2023-01-26T05:37:04;101245.19;;;4.54;100.00
11523;BME280;40093;43.224;27.910;2023-01-26T05:39:31;101249.34;;;4.43;100.00
11523;BME280;40093;43.224;27.910;2023-01-26T05:41:58;101248.63;;;4.29;100.00
11523;BME280;40093;43.224;27.910;2023-01-26T05:44:25;101245.88;;;4.12;100.00
11523;BME280;40093;43.224;27.910;2023-01-26T05:46:53;101248.09;;;4.10;100.00
11523;BME280;40093;43.224;27.910;2023-01-26T05:49:20;101236.41;;;4.09;100.00
11523;BME280;40093;43.224;27.910;2023-01-26T05:51:47;101230.28;;;4.04;100.00
11523;BME280;40093;43.224;27.910;2023-01-26T05:54:15;101241.03;;;4.09;100.00
11523;BME280;40093;43.224;27.910;2023-01-26T05:56:42;101242.31;;;4.03;100.00
11523;BME280;40093;43.224;27.910;2023-01-26T05:59:09;101235.91;;;4.07;100.00
11523;BME280;40093;43.224;27.910;2023-01-26T06:01:36;101235.09;;;4.07;100.00
11523;BME280;40093;43.224;27.910;2023-01-26T06:04:04;101238.31;;;4.09;100.00
11523;BME280;40093;43.224;27.910;2023-01-26T06:06:30;101239.31;;;4.13;100.00
11523;BME280;40093;43.224;27.910;2023-01-26T06:08:58;101240.56;;;4.07;100.00
11523;BME280;40093;43.224;27.910;2023-01-26T06:11:26;101242.16;;;4.08;100.00
11523;BME280;40093;43.224;27.910;2023-01-26T06:13:53;101238.53;;;4.21;100.00
11523;BME280;40093;43.224;27.910;2023-01-26T06:16:20;101239.97;;;4.27;100.00
11523;BME280;40093;43.224;27.910;2023-01-26T06:18:47;101240.81;;;4.27;100.00
11523;BME280;40093;43.224;27.910;2023-01-26T06:21:14;101234.06;;;4.33;100.00
11523;BME280;40093;43.224;27.910;2023-01-26T06:23:41;101235.56;;;4.48;100.00
11523;BME280;40093;43.224;27.910;2023-01-26T06:26:08;101231.09;;;4.69;100.00
11523;BME280;40093;43.224;27.910;2023-01-26T06:28:36;101222.13;;;4.77;100.00
11523;BME280;40093;43.224;27.910;2023-01-26T06:31:05;101222.78;;;4.90;100.00
11523;BME280;40093;43.224;27.910;2023-01-26T06:33:35;101215.25;;;4.87;100.00
11523;BME280;40093;43.224;27.910;2023-01-26T06:36:03;101222.94;;;5.02;100.00
11523;BME280;40093;43.224;27.910;2023-01-26T06:38:31;101210.91;;;5.12;100.00
11523;BME280;40093;43.224;27.910;2023-01-26T06:40:58;101214.75;;;5.02;100.00
11523;BME280;40093;43.224;27.910;2023-01-26T06:43:27;101216.84;;;5.14;100.00
11523;BME280;40093;43.224;27.910;2023-01-26T06:45:56;101226.00;;;5.09;100.00
11523;BME280;40093;43.224;27.910;2023-01-26T06:48:24;101221.00;;;5.20;100.00
11523;BME280;40093;43.224;27.910;2023-01-26T06:50:51;101219.88;;;5.29;100.00
11523;BME280;40093;43.224;27.910;2023-01-26T06:53:28;101219.22;;;5.15;100.00
11523;BME280;40093;43.224;27.910;2023-01-26T06:55:55;101225.00;;;5.05;100.00
11523;BME280;40093;43.224;27.910;2023-01-26T06:58:23;101218.59;;;5.18;100.00
11523;BME280;40093;43.224;27.910;2023-01-26T07:00:50;101225.00;;;5.22;100.00
11523;BME280;40093;43.224;27.910;2023-01-26T07:03:18;101215.53;;;5.37;100.00
11523;BME280;40093;43.224;27.910;2023-01-26T07:05:45;101206.19;;;5.38;100.00
11523;BME280;40093;43.224;27.910;2023-01-26T07:08:12;101202.63;;;5.54;100.00
11523;BME280;40093;43.224;27.910;2023-01-26T07:10:39;101208.41;;;5.61;100.00
11523;BME280;40093;43.224;27.910;2023-01-26T07:13:06;101207.47;;;6.03;100.00
11523;BME280;40093;43.224;27.910;2023-01-26T07:15:33;101206.53;;;6.57;100.00
11523;BME280;40093;43.224;27.910;2023-01-26T07:18:00;101204.00;;;6.93;100.00
11523;BME280;40093;43.224;27.910;2023-01-26T07:20:28;101195.66;;;7.10;100.00
11523;BME280;40093;43.224;27.910;2023-01-26T07:22:55;101191.41;;;7.13;100.00
11523;BME280;40093;43.224;27.910;2023-01-26T07:25:23;101192.94;;;7.22;100.00
11523;BME280;40093;43.224;27.910;2023-01-26T07:27:54;101191.09;;;7.14;100.00
11523;BME280;40093;43.224;27.910;2023-01-26T07:30:21;101196.88;;;7.33;100.00
11523;BME280;40093;43.224;27.910;2023-01-26T07:32:48;101194.41;;;7.52;100.00
11523;BME280;40093;43.224;27.910;2023-01-26T07:35:15;101188.25;;;7.55;100.00
11523;BME280;40093;43.224;27.910;2023-01-26T07:37:45;101188.94;;;7.52;100.00
11523;BME280;40093;43.224;27.910;2023-01-26T07:40:12;101192.31;;;7.37;100.00
11523;BME280;40093;43.224;27.910;2023-01-26T07:42:39;101185.91;;;7.33;100.00
11523;BME280;40093;43.224;27.910;2023-01-26T07:45:07;101176.34;;;7.39;100.00
11523;BME280;40093;43.224;27.910;2023-01-26T07:47:33;101172.47;;;7.40;100.00
11523;BME280;40093;43.224;27.910;2023-01-26T07:50:02;101160.00;;;7.30;100.00
11523;BME280;40093;43.224;27.910;2023-01-26T07:52:30;101151.03;;;7.42;100.00
11523;BME280;40093;43.224;27.910;2023-01-26T07:54:58;101155.13;;;7.48;100.00
11523;BME280;40093;43.224;27.910;2023-01-26T07:57:25;101145.72;;;7.25;100.00
11523;BME280;40093;43.224;27.910;2023-01-26T07:59:52;101148.50;;;7.37;100.00
11523;BME280;40093;43.224;27.910;2023-01-26T08:02:19;101147.16;;;7.43;100.00
11523;BME280;40093;43.224;27.910;2023-01-26T08:04:46;101151.06;;;7.54;100.00
11523;BME280;40093;43.224;27.910;2023-01-26T08:07:13;101154.06;;;7.73;100.00
11523;BME280;40093;43.224;27.910;2023-01-26T08:09:40;101151.91;;;7.78;100.00
11523;BME280;40093;43.224;27.910;2023-01-26T08:12:08;101145.28;;;7.91;100.00
11523;BME280;40093;43.224;27.910;2023-01-26T08:14:35;101150.16;;;8.10;100.00
11523;BME280;40093;43.224;27.910;2023-01-26T08:17:02;101153.38;;;8.12;100.00
11523;BME280;40093;43.224;27.910;2023-01-26T08:19:29;101148.47;;;7.81;100.00
11523;BME280;40093;43.224;27.910;2023-01-26T08:21:56;101156.88;;;7.76;100.00
11523;BME280;40093;43.224;27.910;2023-01-26T08:24:23;101160.88;;;7.55;100.00
11523;BME280;40093;43.224;27.910;2023-01-26T08:26:51;101163.94;;;7.53;100.00
11523;BME280;40093;43.224;27.910;2023-01-26T08:29:19;101177.72;;;7.45;100.00
11523;BME280;40093;43.224;27.910;2023-01-26T08:31:46;101173.13;;;7.37;100.00
11523;BME280;40093;43.224;27.910;2023-01-26T08:34:13;101169.50;;;7.33;100.00
11523;BME280;40093;43.224;27.910;2023-01-26T08:36:39;101180.72;;;7.20;100.00
11523;BME280;40093;43.224;27.910;2023-01-26T08:39:06;101173.66;;;7.19;100.00
11523;BME280;40093;43.224;27.910;2023-01-26T08:41:33;101171.59;;;7.16;100.00
11523;BME280;40093;43.224;27.910;2023-01-26T08:44:01;101168.59;;;7.09;100.00
11523;BME280;40093;43.224;27.910;2023-01-26T08:46:29;101159.53;;;6.96;100.00
11523;BME280;40093;43.224;27.910;2023-01-26T08:48:56;101157.69;;;6.88;100.00
11523;BME280;40093;43.224;27.910;2023-01-26T08:51:23;101155.41;;;6.90;100.00
11523;BME280;40093;43.224;27.910;2023-01-26T08:53:50;101156.59;;;6.81;100.00
11523;BME280;40093;43.224;27.910;2023-01-26T08:56:19;101154.00;;;6.84;100.00
11523;BME280;40093;43.224;27.910;2023-01-26T08:58:46;101149.94;;;6.90;100.00
11523;BME280;40093;43.224;27.910;2023-01-26T09:01:15;101142.47;;;6.99;100.00
11523;BME280;40093;43.224;27.910;2023-01-26T09:03:44;101130.88;;;7.14;100.00
11523;BME280;40093;43.224;27.910;2023-01-26T09:06:11;101120.91;;;7.30;100.00
11523;BME280;40093;43.224;27.910;2023-01-26T09:08:40;101115.19;;;7.47;100.00
11523;BME280;40093;43.224;27.910;2023-01-26T09:11:08;101118.88;;;7.63;100.00
11523;BME280;40093;43.224;27.910;2023-01-26T09:13:35;101113.41;;;7.63;100.00
11523;BME280;40093;43.224;27.910;2023-01-26T09:16:03;101113.84;;;7.53;100.00
11523;BME280;40093;43.224;27.910;2023-01-26T09:18:31;101111.88;;;7.41;100.00
11523;BME280;40093;43.224;27.910;2023-01-26T09:21:03;101105.69;;;7.21;100.00
11523;BME280;40093;43.224;27.910;2023-01-26T09:23:31;101096.19;;;7.18;100.00
11523;BME280;40093;43.224;27.910;2023-01-26T09:25:58;101102.25;;;7.23;100.00
11523;BME280;40093;43.224;27.910;2023-01-26T09:28:25;101092.28;;;7.07;100.00
11523;BME280;40093;43.224;27.910;2023-01-26T09:30:52;101085.72;;;7.08;100.00
11523;BME280;40093;43.224;27.910;2023-01-26T09:33:18;101077.28;;;7.13;100.00
11523;BME280;40093;43.224;27.910;2023-01-26T09:35:47;101073.66;;;7.21;100.00
11523;BME280;40093;43.224;27.910;2023-01-26T09:38:16;101066.06;;;7.06;100.00
11523;BME280;40093;43.224;27.910;2023-01-26T09:40:59;101070.47;;;7.19;100.00
11523;BME280;40093;43.224;27.910;2023-01-26T09:43:37;101069.53;;;7.27;100.00
11523;BME280;40093;43.224;27.910;2023-01-26T09:46:17;101064.16;;;7.19;100.00
11523;BME280;40093;43.224;27.910;2023-01-26T09:48:59;101056.66;;;7.28;100.00
11523;BME280;40093;43.224;27.910;2023-01-26T09:51:33;101048.78;;;7.26;100.00
11523;BME280;40093;43.224;27.910;2023-01-26T09:54:04;101051.75;;;7.21;100.00
11523;BME280;40093;43.224;27.910;2023-01-26T09:56:35;101038.84;;;7.22;100.00
11523;BME280;40093;43.224;27.910;2023-01-26T09:59:04;101035.53;;;7.16;100.00
11523;BME280;40093;43.224;27.910;2023-01-26T10:01:37;101027.00;;;7.29;100.00
11523;BME280;40093;43.224;27.910;2023-01-26T10:04:13;101015.84;;;7.46;100.00
11523;BME280;40093;43.224;27.910;2023-01-26T10:06:45;101004.44;;;7.56;100.00
11523;BME280;40093;43.224;27.910;2023-01-26T10:09:19;101017.53;;;7.75;100.00
11523;BME280;40093;43.224;27.910;2023-01-26T10:11:51;101006.09;;;7.85;100.00
11523;BME280;40093;43.224;27.910;2023-01-26T10:14:26;101013.75;;;7.79;100.00
11523;BME280;40093;43.224;27.910;2023-01-26T10:16:57;101003.00;;;7.86;100.00
11523;BME280;40093;43.224;27.910;2023-01-26T10:19:32;101006.53;;;7.99;100.00
11523;BME280;40093;43.224;27.910;2023-01-26T10:22:07;101000.56;;;8.09;100.00
11523;BME280;40093;43.224;27.910;2023-01-26T10:24:39;100987.50;;;8.18;100.00
11523;BME280;40093;43.224;27.910;2023-01-26T10:27:09;100986.59;;;8.26;100.00
11523;BME280;40093;43.224;27.910;2023-01-26T10:29:53;100981.13;;;8.26;100.00
11523;BME280;40093;43.224;27.910;2023-01-26T10:32:20;100970.00;;;8.34;100.00
11523;BME280;40093;43.224;27.910;2023-01-26T10:34:48;100952.13;;;8.40;100.00
11523;BME280;40093;43.224;27.910;2023-01-26T10:37:22;100948.53;;;8.52;100.00
11523;BME280;40093;43.224;27.910;2023-01-26T10:40:01;100959.34;;;8.60;100.00
11523;BME280;40093;43.224;27.910;2023-01-26T10:42:30;100958.72;;;8.67;100.00
11523;BME280;40093;43.224;27.910;2023-01-26T10:44:58;100944.06;;;8.75;100.00
11523;BME280;40093;43.224;27.910;2023-01-26T10:47:27;100959.28;;;8.88;100.00
11523;BME280;40093;43.224;27.910;2023-01-26T10:50:13;100929.09;;;8.88;100.00
11523;BME280;40093;43.224;27.910;2023-01-26T10:52:56;100947.34;;;8.96;100.00
11523;BME280;40093;43.224;27.910;2023-01-26T10:55:25;100953.63;;;8.96;100.00
11523;BME280;40093;43.224;27.910;2023-01-26T10:57:53;100950.38;;;8.91;100.00
11523;BME280;40093;43.224;27.910;2023-01-26T11:00:23;100937.78;;;8.90;100.00
11523;BME280;40093;43.224;27.910;2023-01-26T11:02:54;100936.34;;;8.96;100.00
11523;BME280;40093;43.224;27.910;2023-01-26T11:05:23;100930.88;;;8.96;100.00
11523;BME280;40093;43.224;27.910;2023-01-26T11:07:51;100928.56;;;8.98;100.00
11523;BME280;40093;43.224;27.910;2023-01-26T11:10:28;100931.06;;;9.03;100.00
11523;BME280;40093;43.224;27.910;2023-01-26T11:13:07;100933.44;;;9.04;100.00
11523;BME280;40093;43.224;27.910;2023-01-26T11:15:36;100946.63;;;8.99;100.00
11523;BME280;40093;43.224;27.910;2023-01-26T11:18:12;100941.06;;;8.95;100.00
11523;BME280;40093;43.224;27.910;2023-01-26T11:21:00;100936.00;;;8.97;100.00
11523;BME280;40093;43.224;27.910;2023-01-26T11:23:40;100942.13;;;8.91;100.00
11523;BME280;40093;43.224;27.910;2023-01-26T11:26:27;100932.13;;;8.83;100.00
11523;BME280;40093;43.224;27.910;2023-01-26T11:29:07;100954.78;;;8.80;100.00
11523;BME280;40093;43.224;27.910;2023-01-26T11:31:45;100928.50;;;8.79;100.00
11523;BME280;40093;43.224;27.910;2023-01-26T11:34:26;100935.19;;;8.81;100.00
11523;BME280;40093;43.224;27.910;2023-01-26T11:37:08;100931.59;;;8.77;100.00
11523;BME280;40093;43.224;27.910;2023-01-26T11:39:52;100928.13;;;8.80;100.00
11523;BME280;40093;43.224;27.910;2023-01-26T11:42:29;100912.47;;;8.81;100.00
11523;BME280;40093;43.224;27.910;2023-01-26T11:45:13;100907.41;;;8.83;100.00
11523;BME280;40093;43.224;27.910;2023-01-26T11:48:00;100915.38;;;8.88;100.00
11523;BME280;40093;43.224;27.910;2023-01-26T11:50:34;100909.28;;;8.94;100.00
11523;BME280;40093;43.224;27.910;2023-01-26T11:53:18;100917.34;;;9.03;100.00
11523;BME280;40093;43.224;27.910;2023-01-26T11:56:00;100911.13;;;9.06;100.00
11523;BME280;40093;43.224;27.910;2023-01-26T11:58:37;100909.25;;;9.10;100.00
11523;BME280;40093;43.224;27.910;2023-01-26T12:01:08;100917.31;;;9.18;100.00
11523;BME280;40093;43.224;27.910;2023-01-26T12:03:42;100911.19;;;9.25;100.00
11523;BME280;40093;43.224;27.910;2023-01-26T12:06:16;100913.22;;;9.28;100.00
11523;BME280;40093;43.224;27.910;2023-01-26T12:08:47;100910.47;;;9.28;100.00
11523;BME280;40093;43.224;27.910;2023-01-26T12:11:19;100911.81;;;9.34;100.00
11523;BME280;40093;43.224;27.910;2023-01-26T12:14:11;100901.25;;;9.36;100.00
11523;BME280;40093;43.224;27.910;2023-01-26T12:16:48;100907.91;;;9.35;100.00
11523;BME280;40093;43.224;27.910;2023-01-26T12:19:33;100878.50;;;9.20;100.00
11523;BME280;40093;43.224;27.910;2023-01-26T12:22:10;100894.44;;;9.30;100.00
11523;BME280;40093;43.224;27.910;2023-01-26T12:24:43;100894.81;;;9.28;100.00
11523;BME280;40093;43.224;27.910;2023-01-26T12:27:17;100887.63;;;9.24;100.00
11523;BME280;40093;43.224;27.910;2023-01-26T12:29:50;100898.06;;;9.34;100.00
11523;BME280;40093;43.224;27.910;2023-01-26T12:32:19;100901.34;;;9.39;100.00
11523;BME280;40093;43.224;27.910;2023-01-26T12:34:47;100889.53;;;9.39;100.00
11523;BME280;40093;43.224;27.910;2023-01-26T12:37:36;100887.94;;;9.38;100.00
11523;BME280;40093;43.224;27.910;2023-01-26T12:40:16;100889.97;;;9.41;100.00
11523;BME280;40093;43.224;27.910;2023-01-26T12:42:53;100898.84;;;9.34;100.00
11523;BME280;40093;43.224;27.910;2023-01-26T12:45:28;100876.09;;;9.34;100.00
11523;BME280;40093;43.224;27.910;2023-01-26T12:48:05;100876.53;;;9.36;100.00
11523;BME280;40093;43.224;27.910;2023-01-26T12:50:37;100874.94;;;9.35;100.00
11523;BME280;40093;43.224;27.910;2023-01-26T12:53:08;100870.44;;;9.27;100.00
11523;BME280;40093;43.224;27.910;2023-01-26T12:55:40;100874.03;;;9.31;100.00
11523;BME280;40093;43.224;27.910;2023-01-26T12:58:11;100883.00;;;9.28;100.00